Time;durP1;ratioP1;P1;durP2;ratioP2;P2;SDS_P1;SDS_P2;PMS_P1;PMS_P2;Temp;Humidity;BMP_temperature;BMP_pressure;BME280_temperature;BME280_humidity;BME280_pressure;Samples;Min_cycle;Max_cycle;Signal;HPM_P1;HPM_P2
2023/07/16 00:01:59;;;;;;;3.83;0.70;;;16.70;99.90;;;;;;5001512;28;20037;-70
2023/07/16 00:04:25;;;;;;;7.00;0.75;;;16.70;99.90;;;;;;4993409;28;20464;-70
2023/07/16 00:06:51;;;;;;;2.85;0.90;;;16.70;99.90;;;;;;4998664;28;20042;-71
2023/07/16 00:09:16;;;;;;;2.60;0.70;;;16.70;99.90;;;;;;5001524;28;20057;-72
2023/07/16 00:11:42;;;;;;;4.07;0.82;;;16.70;99.90;;;;;;5003578;28;20471;-70
2023/07/16 00:14:11;;;;;;;12.27;1.15;;;16.70;99.90;;;;;;4999337;28;20030;-72
2023/07/16 00:16:36;;;;;;;4.78;1.20;;;16.70;99.90;;;;;;5000012;28;20033;-71
2023/07/16 00:19:02;;;;;;;5.97;1.65;;;16.70;99.90;;;;;;4997082;28;20104;-70
2023/07/16 00:21:27;;;;;;;5.78;0.70;;;16.70;99.90;;;;;;5000546;28;20092;-70
2023/07/16 00:23:53;;;;;;;2.70;0.95;;;16.60;99.90;;;;;;4996486;28;20049;-71
2023/07/16 00:26:18;;;;;;;3.78;0.90;;;16.70;99.90;;;;;;4996503;28;20030;-72
2023/07/16 00:28:44;;;;;;;4.78;1.88;;;16.70;99.90;;;;;;4997226;28;20508;-70
2023/07/16 00:31:10;;;;;;;5.90;0.82;;;16.70;99.90;;;;;;4998282;28;20053;-70
2023/07/16 00:33:35;;;;;;;3.88;0.90;;;16.70;99.90;;;;;;4999528;28;20037;-69
2023/07/16 00:36:01;;;;;;;3.83;0.95;;;16.60;99.90;;;;;;4997215;28;20128;-72
2023/07/16 00:38:27;;;;;;;4.05;0.80;;;16.70;99.90;;;;;;4996062;28;20052;-71
2023/07/16 00:40:52;;;;;;;8.35;1.08;;;16.60;99.90;;;;;;4997302;28;20023;-70
2023/07/16 00:43:18;;;;;;;5.32;0.90;;;16.60;99.90;;;;;;4992204;28;20471;-70
2023/07/16 00:45:46;;;;;;;5.78;0.88;;;16.70;99.90;;;;;;4997221;28;20030;-71
2023/07/16 00:48:12;;;;;;;4.07;1.35;;;16.60;99.90;;;;;;5000417;28;20049;-71
2023/07/16 00:50:39;;;;;;;6.20;1.83;;;16.60;99.90;;;;;;4996650;28;20499;-70
2023/07/16 00:53:07;;;;;;;6.55;1.98;;;16.60;99.90;;;;;;4997104;28;20535;-71
2023/07/16 00:55:33;;;;;;;8.13;1.02;;;16.60;99.90;;;;;;4994076;28;20034;-71
2023/07/16 00:58:07;;;;;;;5.38;1.10;;;16.60;99.90;;;;;;4999180;28;20392;-70
2023/07/16 01:00:35;;;;;;;4.22;1.38;;;16.60;99.90;;;;;;4992574;28;20102;-70
2023/07/16 01:03:10;;;;;;;3.65;1.10;;;16.60;99.90;;;;;;4998316;28;20037;-71
2023/07/16 01:06:06;;;;;;;4.55;0.93;;;16.60;99.90;;;;;;4995485;28;20039;-69
2023/07/16 01:09:00;;;;;;;6.57;1.27;;;16.60;99.90;;;;;;4993507;28;20061;-68
2023/07/16 01:11:27;;;;;;;4.50;1.10;;;16.50;99.90;;;;;;4990013;28;20022;-71
2023/07/16 01:13:53;;;;;;;4.95;1.10;;;16.60;99.90;;;;;;5000158;28;20040;-70
2023/07/16 01:16:23;;;;;;;6.85;1.83;;;16.60;99.90;;;;;;4996081;28;20500;-71
2023/07/16 01:18:49;;;;;;;11.00;1.85;;;16.50;99.90;;;;;;4992850;28;20038;-71
2023/07/16 01:21:18;;;;;;;6.32;1.08;;;16.60;99.90;;;;;;4998013;28;20056;-71
2023/07/16 01:24:11;;;;;;;3.63;1.50;;;16.50;99.90;;;;;;4996680;28;20083;-70
2023/07/16 01:26:52;;;;;;;5.93;1.30;;;16.50;99.90;;;;;;4999085;28;20061;-70
2023/07/16 01:29:28;;;;;;;4.63;1.30;;;16.50;99.90;;;;;;4996575;28;20043;-70
2023/07/16 01:31:55;;;;;;;6.22;1.20;;;16.50;99.90;;;;;;4986748;28;20137;-70
2023/07/16 01:34:22;;;;;;;10.15;1.52;;;16.60;99.90;;;;;;4999032;28;20061;-70
2023/07/16 01:36:49;;;;;;;4.28;1.60;;;16.60;99.90;;;;;;4996045;28;20724;-70
2023/07/16 01:39:14;;;;;;;6.15;1.60;;;16.50;99.90;;;;;;4997321;28;20062;-70
2023/07/16 01:41:40;;;;;;;10.32;1.17;;;16.60;99.90;;;;;;4995801;28;20030;-70
2023/07/16 01:44:06;;;;;;;4.43;1.50;;;16.60;99.90;;;;;;4998091;28;20780;-71
2023/07/16 01:46:32;;;;;;;6.78;1.58;;;16.50;99.90;;;;;;4998666;28;20048;-70
2023/07/16 01:48:57;;;;;;;5.22;2.03;;;16.50;99.90;;;;;;4994849;28;20168;-70
2023/07/16 01:51:23;;;;;;;5.35;1.60;;;16.50;99.90;;;;;;4991568;28;20038;-70
2023/07/16 01:53:48;;;;;;;9.02;1.38;;;16.50;99.90;;;;;;4995069;28;20043;-71
2023/07/16 01:56:14;;;;;;;8.25;2.05;;;16.50;99.90;;;;;;4997849;28;20057;-72
2023/07/16 01:58:40;;;;;;;10.80;2.08;;;16.50;99.90;;;;;;4991047;28;20034;-70
2023/07/16 02:01:05;;;;;;;8.45;1.80;;;16.50;99.90;;;;;;4994138;28;20045;-70
2023/07/16 02:03:31;;;;;;;8.95;2.03;;;16.50;99.90;;;;;;4997751;28;20047;-69
2023/07/16 02:05:56;;;;;;;7.97;2.70;;;16.50;99.90;;;;;;4995445;28;20134;-72
2023/07/16 02:08:22;;;;;;;7.15;1.77;;;16.50;99.90;;;;;;4994837;28;20053;-70
2023/07/16 02:10:48;;;;;;;5.45;1.40;;;16.50;99.90;;;;;;4999819;28;20037;-71
2023/07/16 02:13:14;;;;;;;6.95;1.30;;;16.40;99.90;;;;;;4991937;28;20030;-76
2023/07/16 02:15:39;;;;;;;6.70;2.25;;;16.50;99.90;;;;;;5000906;28;20034;-71
2023/07/16 02:18:05;;;;;;;10.05;2.25;;;16.40;99.90;;;;;;4998762;28;20114;-71
2023/07/16 02:20:31;;;;;;;8.32;1.88;;;16.40;99.90;;;;;;5001928;28;20048;-71
2023/07/16 02:22:57;;;;;;;10.85;2.15;;;16.40;99.90;;;;;;4999765;28;20042;-70
2023/07/16 02:25:23;;;;;;;8.15;1.95;;;16.40;99.90;;;;;;5002730;28;20058;-70
2023/07/16 02:27:48;;;;;;;9.30;2.45;;;16.40;99.90;;;;;;5001019;28;20041;-72
2023/07/16 02:30:17;;;;;;;5.90;1.90;;;16.40;99.90;;;;;;4998291;28;20042;-74
2023/07/16 02:32:43;;;;;;;9.63;2.95;;;16.40;99.90;;;;;;5000558;28;20035;-70
2023/07/16 02:35:09;;;;;;;9.98;2.53;;;16.40;99.90;;;;;;5000785;28;20040;-72
2023/07/16 02:37:34;;;;;;;5.20;1.75;;;16.40;99.90;;;;;;4996170;28;20038;-71
2023/07/16 02:40:00;;;;;;;8.60;1.77;;;16.40;99.90;;;;;;4995288;28;20034;-70
2023/07/16 02:42:26;;;;;;;11.20;2.00;;;16.40;99.90;;;;;;4998513;28;20030;-71
2023/07/16 02:44:51;;;;;;;10.27;2.17;;;16.40;99.90;;;;;;5002630;28;20060;-71
2023/07/16 02:47:17;;;;;;;7.00;1.65;;;16.40;99.90;;;;;;4997689;28;20042;-71
2023/07/16 02:49:42;;;;;;;8.10;1.92;;;16.40;99.90;;;;;;4998587;28;20034;-71
2023/07/16 02:52:08;;;;;;;9.13;1.58;;;16.40;99.90;;;;;;4999494;28;20034;-73
2023/07/16 02:54:35;;;;;;;6.63;1.88;;;16.40;99.90;;;;;;5004704;28;20498;-71
2023/07/16 02:57:01;;;;;;;12.90;2.75;;;16.40;99.90;;;;;;5000337;28;20061;-70
2023/07/16 02:59:27;;;;;;;12.85;2.40;;;16.40;99.90;;;;;;5001211;28;20030;-71
2023/07/16 03:01:53;;;;;;;4.85;1.40;;;16.30;99.90;;;;;;5003314;28;20030;-71
2023/07/16 03:04:19;;;;;;;10.88;2.10;;;16.30;99.90;;;;;;4996063;28;20111;-72
2023/07/16 03:06:44;;;;;;;5.57;1.40;;;16.40;99.90;;;;;;5001082;28;20041;-69
2023/07/16 03:09:11;;;;;;;3.42;1.38;;;16.30;99.90;;;;;;5003841;28;20033;-70
2023/07/16 03:11:36;;;;;;;7.97;1.73;;;16.30;99.90;;;;;;4999863;28;20105;-70
2023/07/16 03:14:02;;;;;;;12.52;2.03;;;16.30;99.90;;;;;;5003091;28;20026;-70
2023/07/16 03:16:28;;;;;;;3.80;1.40;;;16.30;99.90;;;;;;5002190;28;20802;-71
2023/07/16 03:18:54;;;;;;;7.70;2.28;;;16.20;99.90;;;;;;4998822;28;20034;-69
2023/07/16 03:21:19;;;;;;;11.52;1.75;;;16.20;99.90;;;;;;5000613;28;20037;-71
2023/07/16 03:23:45;;;;;;;6.75;1.90;;;16.20;99.90;;;;;;5003947;28;20478;-70
2023/07/16 03:26:11;;;;;;;10.23;1.80;;;16.20;99.90;;;;;;4997135;28;20046;-71
2023/07/16 03:28:36;;;;;;;5.35;1.42;;;16.20;99.90;;;;;;5002199;28;20070;-70
2023/07/16 03:31:02;;;;;;;6.63;1.48;;;16.30;99.90;;;;;;4998896;28;20129;-70
2023/07/16 03:33:27;;;;;;;8.45;1.52;;;16.30;99.90;;;;;;4998840;28;20472;-69
2023/07/16 03:35:53;;;;;;;10.80;1.77;;;16.30;99.90;;;;;;4998211;28;20112;-70
2023/07/16 03:38:19;;;;;;;7.65;1.67;;;16.30;99.90;;;;;;4997270;28;20039;-71
2023/07/16 03:40:49;;;;;;;9.70;1.83;;;16.40;99.90;;;;;;5001284;28;20054;-70
2023/07/16 03:43:15;;;;;;;6.93;1.40;;;16.40;99.90;;;;;;5002155;28;20045;-74
2023/07/16 03:45:41;;;;;;;6.43;2.17;;;16.40;99.90;;;;;;5003875;28;20455;-74
2023/07/16 03:48:07;;;;;;;8.73;1.60;;;16.50;99.90;;;;;;5002032;28;20117;-71
2023/07/16 03:50:33;;;;;;;6.55;1.50;;;16.40;99.90;;;;;;4996320;28;20030;-70
2023/07/16 03:52:59;;;;;;;8.20;1.73;;;16.50;99.90;;;;;;4998718;28;20041;-71
2023/07/16 03:55:25;;;;;;;8.30;1.77;;;16.50;99.90;;;;;;5003315;28;20045;-70
2023/07/16 03:57:50;;;;;;;7.30;1.38;;;16.40;99.90;;;;;;5001879;28;20041;-70
2023/07/16 04:00:16;;;;;;;9.30;1.70;;;16.50;99.90;;;;;;5000364;28;20042;-71
2023/07/16 04:02:41;;;;;;;10.52;2.45;;;16.50;99.90;;;;;;4997161;28;20068;-69
2023/07/16 04:05:07;;;;;;;5.53;1.30;;;16.50;99.90;;;;;;4992913;28;20042;-70
2023/07/16 04:07:33;;;;;;;7.30;1.50;;;16.50;99.90;;;;;;4995158;28;20480;-70
2023/07/16 04:09:58;;;;;;;7.22;1.80;;;16.50;99.90;;;;;;4999290;28;20030;-70
2023/07/16 04:12:24;;;;;;;6.43;1.73;;;16.50;99.90;;;;;;4999294;28;20030;-71
2023/07/16 04:14:56;;;;;;;9.23;2.05;;;16.50;99.90;;;;;;4997691;28;20380;-71
2023/07/16 04:17:21;;;;;;;4.90;1.50;;;16.50;99.90;;;;;;4998724;28;20417;-71
2023/07/16 04:19:47;;;;;;;6.07;1.77;;;16.40;99.90;;;;;;5001006;28;20093;-70
2023/07/16 04:22:12;;;;;;;8.85;2.28;;;16.50;99.90;;;;;;5001054;28;20080;-71
2023/07/16 04:24:38;;;;;;;10.43;1.90;;;16.50;99.90;;;;;;5004938;28;20046;-72
2023/07/16 04:27:04;;;;;;;7.85;1.92;;;16.50;99.90;;;;;;4995864;28;20044;-73
2023/07/16 04:29:29;;;;;;;6.65;2.28;;;16.50;99.90;;;;;;4996929;28;20826;-71
2023/07/16 04:31:55;;;;;;;10.65;1.77;;;16.50;99.90;;;;;;4996907;28;20186;-70
2023/07/16 04:34:20;;;;;;;6.00;1.90;;;16.50;99.90;;;;;;4996367;28;20585;-71
2023/07/16 04:36:46;;;;;;;5.30;1.75;;;16.50;99.90;;;;;;5005458;28;20121;-70
2023/07/16 04:39:11;;;;;;;8.10;1.95;;;16.50;99.90;;;;;;4994997;28;20050;-71
2023/07/16 04:41:37;;;;;;;12.82;2.20;;;16.60;99.90;;;;;;5008488;28;20058;-71
2023/07/16 04:44:03;;;;;;;8.95;1.83;;;16.50;99.90;;;;;;5000597;28;20081;-71
2023/07/16 04:46:30;;;;;;;10.73;2.00;;;16.60;99.90;;;;;;4996657;28;20715;-71
2023/07/16 04:48:55;;;;;;;8.27;2.45;;;16.60;99.90;;;;;;4993055;28;20046;-71
2023/07/16 04:51:21;;;;;;;4.82;1.85;;;16.60;99.90;;;;;;4999353;28;20084;-71
2023/07/16 04:53:46;;;;;;;6.60;1.77;;;16.60;99.90;;;;;;5000093;28;20034;-71
2023/07/16 04:56:13;;;;;;;7.40;1.88;;;16.60;99.90;;;;;;4999090;28;20023;-71
2023/07/16 04:58:39;;;;;;;6.85;1.90;;;16.60;99.90;;;;;;4996471;28;20378;-72
2023/07/16 05:01:04;;;;;;;5.18;2.17;;;16.60;99.90;;;;;;4996356;28;20026;-72
2023/07/16 05:03:30;;;;;;;10.50;2.00;;;16.60;99.90;;;;;;4997059;28;20038;-70
2023/07/16 05:05:55;;;;;;;6.15;2.20;;;16.60;99.90;;;;;;4994708;28;20496;-70
2023/07/16 05:08:21;;;;;;;7.10;1.73;;;16.70;99.90;;;;;;4999529;28;20551;-69
2023/07/16 05:10:47;;;;;;;8.77;2.03;;;16.70;99.90;;;;;;5000535;28;20392;-71
2023/07/16 05:13:12;;;;;;;13.52;2.50;;;16.70;99.90;;;;;;4996097;28;20423;-70
2023/07/16 05:15:38;;;;;;;6.47;1.77;;;16.80;99.90;;;;;;4996390;28;20034;-71
2023/07/16 05:18:03;;;;;;;5.18;2.13;;;16.80;99.90;;;;;;5000754;28;20133;-74
2023/07/16 05:20:29;;;;;;;15.77;2.58;;;16.80;99.90;;;;;;4988686;28;20505;-71
2023/07/16 05:22:55;;;;;;;10.50;2.55;;;16.80;99.90;;;;;;5010867;28;20201;-70
2023/07/16 05:25:20;;;;;;;9.05;2.10;;;16.80;99.90;;;;;;5002337;28;20045;-71
2023/07/16 05:27:46;;;;;;;7.60;2.20;;;16.80;99.90;;;;;;4996665;28;20038;-71
2023/07/16 05:30:12;;;;;;;7.80;2.03;;;16.80;99.90;;;;;;4998806;28;20516;-71
2023/07/16 05:32:37;;;;;;;6.40;2.22;;;16.90;99.90;;;;;;4995144;28;20472;-71
2023/07/16 05:35:03;;;;;;;6.15;2.28;;;16.90;99.90;;;;;;4994519;28;20038;-71
2023/07/16 05:37:29;;;;;;;7.07;2.13;;;16.90;99.90;;;;;;4992607;28;20523;-70
2023/07/16 05:39:54;;;;;;;6.68;2.50;;;17.00;99.90;;;;;;4996022;28;20455;-71
2023/07/16 05:42:20;;;;;;;7.75;2.38;;;17.10;99.90;;;;;;4997131;28;20038;-73
2023/07/16 05:44:47;;;;;;;5.95;1.95;;;17.20;99.90;;;;;;4995838;28;20043;-70
2023/07/16 05:47:13;;;;;;;7.32;2.22;;;17.30;99.90;;;;;;5002119;28;20579;-71
2023/07/16 05:49:38;;;;;;;5.25;1.83;;;17.50;99.90;;;;;;4993240;28;20031;-71
2023/07/16 05:52:05;;;;;;;7.07;1.88;;;17.80;99.90;;;;;;5000055;28;20369;-73
2023/07/16 05:54:31;;;;;;;5.70;1.85;;;18.10;99.90;;;;;;4995301;28;20794;-70
2023/07/16 05:56:57;;;;;;;9.38;2.53;;;18.40;99.90;;;;;;5001382;28;20052;-71
2023/07/16 05:59:22;;;;;;;9.10;2.13;;;18.70;99.90;;;;;;4999290;28;20471;-71
2023/07/16 06:01:48;;;;;;;7.18;1.90;;;18.90;99.90;;;;;;4996324;28;20369;-72
2023/07/16 06:04:14;;;;;;;6.57;2.38;;;19.20;99.90;;;;;;5002684;28;20038;-72
2023/07/16 06:06:39;;;;;;;7.22;2.08;;;19.50;99.90;;;;;;4993061;28;20592;-73
2023/07/16 06:09:05;;;;;;;4.88;1.80;;;19.50;99.90;;;;;;5001858;28;20034;-71
2023/07/16 06:11:30;;;;;;;5.90;1.98;;;19.50;99.90;;;;;;4994223;28;20046;-70
2023/07/16 06:13:56;;;;;;;7.22;1.98;;;19.70;99.90;;;;;;4999419;28;20041;-72
2023/07/16 06:16:21;;;;;;;12.93;2.03;;;19.70;99.90;;;;;;4997893;28;20088;-71
2023/07/16 06:18:47;;;;;;;5.88;1.73;;;19.80;99.90;;;;;;4996666;28;20057;-70
2023/07/16 06:21:13;;;;;;;5.53;2.17;;;19.80;99.90;;;;;;5004717;28;20407;-70
2023/07/16 06:23:40;;;;;;;7.05;2.17;;;19.80;99.90;;;;;;5000434;28;20038;-68
2023/07/16 06:26:05;;;;;;;9.40;1.92;;;19.70;99.90;;;;;;4995833;28;20041;-71
2023/07/16 06:28:31;;;;;;;8.45;1.65;;;19.70;99.90;;;;;;4993276;28;20058;-71
2023/07/16 06:30:57;;;;;;;4.78;1.85;;;19.70;99.90;;;;;;4994918;28;20037;-71
2023/07/16 06:33:22;;;;;;;7.55;1.98;;;19.70;99.90;;;;;;4988309;28;20226;-72
2023/07/16 06:35:48;;;;;;;13.85;2.88;;;19.70;99.90;;;;;;4993915;28;20057;-71
2023/07/16 06:38:14;;;;;;;5.75;1.70;;;19.70;99.90;;;;;;4962802;28;1076907;-71
2023/07/16 06:40:49;;;;;;;7.43;2.30;;;19.90;99.90;;;;;;4998073;28;20044;-70
2023/07/16 06:43:16;;;;;;;6.88;2.58;;;20.00;99.90;;;;;;4994998;28;20121;-72
2023/07/16 06:45:42;;;;;;;8.50;2.28;;;20.10;99.90;;;;;;4998849;28;20041;-71
2023/07/16 06:48:07;;;;;;;7.30;2.10;;;20.30;99.90;;;;;;4997087;28;20039;-71
2023/07/16 06:50:33;;;;;;;5.75;2.05;;;20.50;99.90;;;;;;4997564;28;20376;-71
2023/07/16 06:52:58;;;;;;;3.83;1.65;;;20.90;99.90;;;;;;4999270;28;20042;-71
2023/07/16 06:55:24;;;;;;;6.15;1.63;;;21.20;99.90;;;;;;4999474;28;20046;-71
2023/07/16 06:57:49;;;;;;;5.80;2.25;;;21.50;99.90;;;;;;4993449;28;20559;-71
2023/07/16 07:00:15;;;;;;;4.82;1.63;;;21.60;99.90;;;;;;4994072;28;20038;-73
2023/07/16 07:02:41;;;;;;;4.68;1.58;;;21.60;99.90;;;;;;4996558;28;20118;-71
2023/07/16 07:05:07;;;;;;;4.32;2.13;;;21.40;99.90;;;;;;4997747;28;20037;-70
2023/07/16 07:07:33;;;;;;;6.75;2.17;;;21.50;99.90;;;;;;4995844;28;20045;-71
2023/07/16 07:09:58;;;;;;;4.63;2.00;;;21.60;99.90;;;;;;4997257;28;20049;-71
2023/07/16 07:12:24;;;;;;;7.40;2.40;;;21.90;99.90;;;;;;4996441;28;20478;-70
2023/07/16 07:14:49;;;;;;;4.68;2.17;;;22.30;99.90;;;;;;4995652;28;20120;-72
2023/07/16 07:17:15;;;;;;;4.88;1.88;;;22.80;99.50;;;;;;5000075;28;20467;-75
2023/07/16 07:19:42;;;;;;;4.03;1.60;;;23.20;99.10;;;;;;4996137;28;20039;-70
2023/07/16 07:22:08;;;;;;;8.32;1.95;;;23.70;98.80;;;;;;4997506;28;20122;-70
2023/07/16 07:24:33;;;;;;;4.75;1.85;;;24.40;97.90;;;;;;5000537;28;20549;-71
2023/07/16 07:26:59;;;;;;;6.60;1.42;;;24.90;96.80;;;;;;5003548;28;20075;-71
2023/07/16 07:29:24;;;;;;;6.57;2.28;;;24.90;96.40;;;;;;4995971;28;20073;-71
2023/07/16 07:31:52;;;;;;;5.82;2.30;;;24.40;96.40;;;;;;5000200;28;20034;-72
2023/07/16 07:34:17;;;;;;;5.40;2.53;;;23.70;96.50;;;;;;5001731;28;20038;-72
2023/07/16 07:36:43;;;;;;;5.45;2.20;;;22.90;97.40;;;;;;4997963;28;20054;-71
2023/07/16 07:39:08;;;;;;;5.53;2.17;;;22.40;98.50;;;;;;5001487;28;20041;-72
2023/07/16 07:41:34;;;;;;;9.23;2.42;;;21.80;99.50;;;;;;5002776;28;20034;-71
2023/07/16 07:43:59;;;;;;;3.83;1.83;;;21.60;99.80;;;;;;4998053;28;20035;-71
2023/07/16 07:46:25;;;;;;;8.85;2.63;;;22.20;99.50;;;;;;5001846;28;20112;-71
2023/07/16 07:48:50;;;;;;;6.40;1.88;;;23.30;98.80;;;;;;5001679;28;20038;-72
2023/07/16 07:51:16;;;;;;;6.50;2.63;;;24.50;97.30;;;;;;5000872;28;20042;-72
2023/07/16 07:53:41;;;;;;;5.57;1.85;;;24.70;95.90;;;;;;4998621;28;20117;-70
2023/07/16 07:56:07;;;;;;;7.53;2.17;;;24.50;96.10;;;;;;5005883;28;20038;-71
2023/07/16 07:58:33;;;;;;;8.88;2.20;;;24.40;96.30;;;;;;4991906;28;20138;-70
2023/07/16 08:01:05;;;;;;;9.75;2.67;;;24.50;96.20;;;;;;4997797;28;20081;-70
2023/07/16 08:03:31;;;;;;;7.28;1.98;;;24.20;96.60;;;;;;4996411;28;20036;-70
2023/07/16 08:05:56;;;;;;;8.68;2.80;;;23.70;96.20;;;;;;4990850;28;20049;-71
2023/07/16 08:08:22;;;;;;;4.05;1.80;;;23.20;96.90;;;;;;4998461;28;20041;-71
2023/07/16 08:10:47;;;;;;;6.18;2.25;;;22.90;97.90;;;;;;4999651;28;20530;-71
2023/07/16 08:13:13;;;;;;;6.35;2.00;;;23.00;98.30;;;;;;4995755;28;20108;-72
2023/07/16 08:15:39;;;;;;;4.55;1.88;;;23.50;98.90;;;;;;4994267;28;20084;-71
2023/07/16 08:18:04;;;;;;;5.68;1.73;;;23.90;97.70;;;;;;4998421;28;20118;-71
2023/07/16 08:20:30;;;;;;;6.15;2.05;;;24.00;96.90;;;;;;4995953;28;20507;-69
2023/07/16 08:22:56;;;;;;;4.30;1.80;;;24.00;96.30;;;;;;5002069;28;20117;-71
2023/07/16 08:25:22;;;;;;;6.50;2.20;;;23.80;96.60;;;;;;4999391;28;20060;-70
2023/07/16 08:27:47;;;;;;;5.75;1.80;;;23.40;97.10;;;;;;4999658;28;20788;-70
2023/07/16 08:30:13;;;;;;;8.20;2.38;;;23.10;97.60;;;;;;4999712;28;20570;-70
2023/07/16 08:32:39;;;;;;;9.70;1.95;;;22.50;97.50;;;;;;4996633;28;20084;-70
2023/07/16 08:35:05;;;;;;;6.35;2.03;;;22.10;98.40;;;;;;4997479;28;20042;-71
2023/07/16 08:37:30;;;;;;;7.82;2.28;;;21.80;98.90;;;;;;4995176;28;20034;-71
2023/07/16 08:39:56;;;;;;;8.90;2.15;;;21.80;99.60;;;;;;4992361;28;20034;-70
2023/07/16 08:42:22;;;;;;;6.97;1.75;;;21.90;99.20;;;;;;4999227;28;20089;-72
2023/07/16 08:44:50;;;;;;;6.50;2.28;;;22.10;99.00;;;;;;5000519;28;20042;-69
2023/07/16 08:47:16;;;;;;;5.25;2.08;;;22.00;98.90;;;;;;4996859;28;20065;-71
2023/07/16 08:49:53;;;;;;;7.80;2.97;;;22.00;99.70;;;;;;4999092;28;20034;-70
2023/07/16 08:52:19;;;;;;;6.55;2.72;;;22.10;99.30;;;;;;4996342;28;20038;-70
2023/07/16 08:54:44;;;;;;;5.63;1.88;;;22.30;99.50;;;;;;4998538;28;20559;-72
2023/07/16 08:57:10;;;;;;;8.43;2.20;;;22.40;99.30;;;;;;4998950;28;20536;-72
2023/07/16 08:59:36;;;;;;;3.90;1.95;;;22.50;98.70;;;;;;5003331;28;20049;-70
2023/07/16 09:02:03;;;;;;;9.18;2.35;;;22.70;99.00;;;;;;5000091;28;20403;-71
2023/07/16 09:04:29;;;;;;;6.47;2.22;;;22.60;98.30;;;;;;4994687;28;20447;-72
2023/07/16 09:06:55;;;;;;;5.25;2.22;;;22.40;98.10;;;;;;4998537;28;20057;-72
2023/07/16 09:09:22;;;;;;;5.55;2.13;;;22.30;99.00;;;;;;4997113;28;20503;-71
2023/07/16 09:11:48;;;;;;;6.90;2.40;;;22.20;99.20;;;;;;5003380;28;20062;-71
2023/07/16 09:14:21;;;;;;;6.25;2.28;;;22.00;98.90;;;;;;4996719;28;20500;-71
2023/07/16 09:16:51;;;;;;;4.88;1.92;;;22.00;99.80;;;;;;4995461;28;20046;-72
2023/07/16 09:19:18;;;;;;;4.13;1.67;;;22.00;98.90;;;;;;4999097;28;20388;-73
2023/07/16 09:21:50;;;;;;;4.75;2.45;;;22.20;99.30;;;;;;4997036;28;20079;-71
2023/07/16 09:24:17;;;;;;;6.00;1.70;;;22.40;98.90;;;;;;4997771;28;20096;-72
2023/07/16 09:26:55;;;;;;;7.30;2.00;;;22.50;98.90;;;;;;5001650;28;20034;-70
2023/07/16 09:29:21;;;;;;;8.40;2.20;;;22.60;98.70;;;;;;4996714;28;20045;-71
2023/07/16 09:31:59;;;;;;;6.95;2.03;;;22.70;98.20;;;;;;4997232;28;20400;-71
2023/07/16 09:34:27;;;;;;;5.75;1.75;;;22.60;98.20;;;;;;4994594;28;20122;-69
2023/07/16 09:36:53;;;;;;;7.25;2.13;;;22.40;98.10;;;;;;5001325;28;20143;-70
2023/07/16 09:39:19;;;;;;;3.88;1.70;;;22.10;98.30;;;;;;4994313;28;20145;-71
2023/07/16 09:41:48;;;;;;;8.25;1.60;;;21.90;98.80;;;;;;4997836;28;20113;-71
2023/07/16 09:44:14;;;;;;;8.95;2.22;;;21.80;99.20;;;;;;4996782;28;20042;-69
2023/07/16 09:46:40;;;;;;;3.70;1.88;;;21.70;99.30;;;;;;4999609;28;20046;-70
2023/07/16 09:49:07;;;;;;;10.70;2.95;;;21.60;99.20;;;;;;5001256;28;20575;-69
2023/07/16 09:51:35;;;;;;;7.00;2.45;;;21.60;99.90;;;;;;5011472;28;20025;-70
2023/07/16 09:54:05;;;;;;;7.70;2.92;;;21.90;99.50;;;;;;5012751;28;20100;-70
2023/07/16 09:56:36;;;;;;;5.35;1.75;;;22.00;99.40;;;;;;5001699;28;20069;-71
2023/07/16 09:59:05;;;;;;;3.85;1.85;;;22.20;99.80;;;;;;4993458;28;20113;-71
2023/07/16 10:01:31;;;;;;;5.25;1.98;;;22.30;99.20;;;;;;4997620;28;20026;-70
2023/07/16 10:03:57;;;;;;;6.53;2.20;;;22.30;99.20;;;;;;4993841;28;20022;-70
2023/07/16 10:06:22;;;;;;;5.45;1.65;;;22.30;99.50;;;;;;4997806;28;20037;-72
2023/07/16 10:08:51;;;;;;;6.28;1.92;;;22.20;99.30;;;;;;4999735;28;20377;-70
2023/07/16 10:11:18;;;;;;;4.75;1.70;;;22.00;98.90;;;;;;4996511;28;20038;-73
2023/07/16 10:13:50;;;;;;;5.13;2.13;;;21.80;99.50;;;;;;4997408;28;20045;-70
2023/07/16 10:16:23;;;;;;;9.18;2.13;;;22.00;99.60;;;;;;4993651;28;20398;-70
2023/07/16 10:18:54;;;;;;;7.25;2.40;;;22.10;99.40;;;;;;4999319;28;20053;-71
2023/07/16 10:21:25;;;;;;;5.40;1.75;;;22.10;99.80;;;;;;4996649;28;20038;-70
2023/07/16 10:23:56;;;;;;;;;;;22.10;99.60;;;;;;4994611;28;20108;-70
2023/07/16 10:26:28;;;;;;;6.07;2.20;;;22.10;99.70;;;;;;4995973;28;20283;-70
2023/07/16 10:28:53;;;;;;;3.95;1.52;;;22.30;99.60;;;;;;4992388;28;20038;-71
2023/07/16 10:31:22;;;;;;;5.82;1.90;;;22.60;99.00;;;;;;4998273;28;20041;-71
2023/07/16 10:34:08;;;;;;;2.58;1.25;;;22.80;98.60;;;;;;4999010;28;20084;-71
2023/07/16 10:36:38;;;;;;;6.03;1.50;;;22.70;98.30;;;;;;4997133;28;20089;-71
2023/07/16 10:39:04;;;;;;;9.63;2.03;;;22.60;98.80;;;;;;4997543;28;20344;-71
2023/07/16 10:41:32;;;;;;;7.95;1.77;;;22.50;98.80;;;;;;5002149;28;20117;-71
2023/07/16 10:43:58;;;;;;;7.22;2.25;;;22.50;99.40;;;;;;5003141;28;20050;-71
2023/07/16 10:46:24;;;;;;;3.55;1.30;;;22.50;98.90;;;;;;5000231;28;20030;-71
2023/07/16 10:48:49;;;;;;;4.22;1.27;;;22.60;99.10;;;;;;5011850;28;20029;-70
2023/07/16 10:51:16;;;;;;;4.40;1.30;;;22.80;99.00;;;;;;5002263;28;20042;-70
2023/07/16 10:53:42;;;;;;;1.58;0.82;;;23.00;98.20;;;;;;5001643;28;20121;-70
2023/07/16 10:56:08;;;;;;;5.07;1.13;;;23.30;97.80;;;;;;4993400;28;20036;-70
2023/07/16 10:58:37;;;;;;;4.13;1.20;;;23.30;97.90;;;;;;5000425;28;20046;-69
2023/07/16 11:01:02;;;;;;;3.75;1.33;;;23.30;98.00;;;;;;4995195;28;20507;-71
2023/07/16 11:03:28;;;;;;;3.90;1.08;;;23.20;97.20;;;;;;4993452;28;20061;-71
2023/07/16 11:05:53;;;;;;;6.82;1.50;;;23.10;98.10;;;;;;5002100;28;20114;-71
2023/07/16 11:08:25;;;;;;;2.42;1.00;;;22.90;97.70;;;;;;4993808;28;20407;-71
2023/07/16 11:10:55;;;;;;;6.38;1.20;;;22.70;97.60;;;;;;4995364;28;20124;-71
2023/07/16 11:13:24;;;;;;;;;;;22.70;97.60;;;;;;4995481;28;20041;-69
2023/07/16 11:15:50;;;;;;;4.55;1.15;;;22.70;97.70;;;;;;4995896;28;19918;-71
2023/07/16 11:18:15;;;;;;;9.27;1.10;;;22.90;97.90;;;;;;4991510;28;20046;-71
2023/07/16 11:20:41;;;;;;;6.72;1.30;;;23.00;97.50;;;;;;4996165;28;20034;-71
2023/07/16 11:23:10;;;;;;;7.25;0.98;;;23.10;98.10;;;;;;4999805;28;20034;-70
2023/07/16 11:25:36;;;;;;;3.17;1.00;;;23.30;97.20;;;;;;4997771;28;20053;-72
2023/07/16 11:28:02;;;;;;;4.88;1.25;;;23.40;97.90;;;;;;4991304;28;20170;-70
2023/07/16 11:30:28;;;;;;;2.50;0.90;;;23.50;98.00;;;;;;4994431;28;20042;-69
2023/07/16 11:32:55;;;;;;;5.60;0.98;;;23.70;96.60;;;;;;4996071;28;20062;-72
2023/07/16 11:35:21;;;;;;;2.88;1.17;;;23.80;96.80;;;;;;4995918;28;20061;-71
2023/07/16 11:37:47;;;;;;;3.05;1.00;;;23.90;96.40;;;;;;4995400;28;20062;-71
2023/07/16 11:40:18;;;;;;;4.55;0.80;;;23.90;96.30;;;;;;4995593;28;20056;-73
2023/07/16 11:42:44;;;;;;;4.22;0.95;;;24.00;97.10;;;;;;4995854;28;20419;-71
2023/07/16 11:45:30;;;;;;;4.07;1.33;;;24.00;96.50;;;;;;4990680;28;20049;-72
2023/07/16 11:47:55;;;;;;;6.05;1.10;;;23.90;96.40;;;;;;4991168;28;20087;-72
2023/07/16 11:50:21;;;;;;;4.13;1.52;;;23.90;96.90;;;;;;4995939;28;20034;-73
2023/07/16 11:52:54;;;;;;;3.30;1.15;;;24.00;97.30;;;;;;4993435;28;20153;-71
2023/07/16 11:55:19;;;;;;;2.65;0.90;;;23.90;95.90;;;;;;4989494;28;20065;-72
2023/07/16 11:57:45;;;;;;;3.75;1.50;;;23.90;96.10;;;;;;4993718;28;20057;-71
2023/07/16 12:00:11;;;;;;;3.53;1.00;;;23.70;96.30;;;;;;4997486;28;20066;-70
2023/07/16 12:02:37;;;;;;;2.92;0.93;;;23.70;96.80;;;;;;4993327;28;20046;-70
2023/07/16 12:05:03;;;;;;;5.03;1.20;;;23.70;96.50;;;;;;4996767;28;20088;-70
2023/07/16 12:07:36;;;;;;;3.22;1.02;;;23.60;96.40;;;;;;4993953;28;20046;-70
2023/07/16 12:10:04;;;;;;;3.15;1.20;;;23.50;97.20;;;;;;4989135;28;20050;-71
2023/07/16 12:12:30;;;;;;;3.20;1.00;;;23.50;96.80;;;;;;4995901;28;20092;-71
2023/07/16 12:14:55;;;;;;;2.78;1.10;;;23.30;97.20;;;;;;4992226;28;20034;-70
2023/07/16 12:17:21;;;;;;;3.10;0.80;;;23.30;97.10;;;;;;4997706;28;20035;-71
2023/07/16 12:19:46;;;;;;;2.28;1.10;;;23.30;97.50;;;;;;4994113;28;20765;-70
2023/07/16 12:22:13;;;;;;;4.40;1.23;;;23.50;97.10;;;;;;4994053;28;20117;-72
2023/07/16 12:24:39;;;;;;;4.32;0.80;;;23.50;96.70;;;;;;4996802;28;20443;-71
2023/07/16 12:27:05;;;;;;;2.60;0.45;;;23.40;96.80;;;;;;4999808;28;20073;-71
2023/07/16 12:29:31;;;;;;;5.32;0.90;;;23.50;96.70;;;;;;4997165;28;20439;-70
2023/07/16 12:31:56;;;;;;;3.35;0.50;;;23.50;97.00;;;;;;4994842;28;20034;-71
2023/07/16 12:34:22;;;;;;;1.95;0.60;;;23.60;97.90;;;;;;4994225;28;20072;-71
2023/07/16 12:36:48;;;;;;;2.67;0.70;;;23.90;96.90;;;;;;4992207;28;20053;-71
2023/07/16 12:39:13;;;;;;;2.85;1.25;;;23.90;96.30;;;;;;5001454;28;20038;-70
2023/07/16 12:41:39;;;;;;;3.17;0.80;;;23.90;96.70;;;;;;5000272;28;20145;-72
2023/07/16 12:44:04;;;;;;;3.42;0.90;;;23.70;97.10;;;;;;4996142;28;20400;-70